createdAt,value
2017-08-02T00:00:15.245Z,1009.11
2017-08-02T00:01:15.235Z,1009.08
2017-08-02T00:02:15.225Z,1009.12
2017-08-02T00:03:15.215Z,1009.09
2017-08-02T00:04:15.203Z,1009.15
2017-08-02T00:05:15.193Z,1009.11
2017-08-02T00:06:15.179Z,1009.11
2017-08-02T00:07:15.169Z,1009.11
2017-08-02T00:08:15.158Z,1009.1
2017-08-02T00:09:15.146Z,1009.12
2017-08-02T00:10:15.135Z,1009.09
2017-08-02T00:11:15.124Z,1009.1
2017-08-02T00:12:15.113Z,1009.14
2017-08-02T00:13:15.102Z,1009.07
2017-08-02T00:14:15.091Z,1009.09
2017-08-02T00:15:15.079Z,1009.08
2017-08-02T00:16:15.068Z,1009.08
2017-08-02T00:17:15.058Z,1009.1
2017-08-02T00:18:15.050Z,1009.11
2017-08-02T00:19:15.036Z,1009.11
2017-08-02T00:20:15.025Z,1009.1
2017-08-02T00:21:15.016Z,1009.08
2017-08-02T00:22:15.005Z,1009.06
2017-08-02T00:23:14.996Z,1009.06
2017-08-02T00:24:14.981Z,1009.04
2017-08-02T00:25:14.969Z,1009.01
2017-08-02T00:26:14.958Z,1008.99
2017-08-02T00:27:14.948Z,1009.01
2017-08-02T00:28:14.935Z,1008.97
2017-08-02T00:29:15.128Z,1008.99
2017-08-02T00:30:14.915Z,1008.99
2017-08-02T00:31:14.908Z,1009
2017-08-02T00:32:14.898Z,1009.01
2017-08-02T00:33:14.879Z,1009
2017-08-02T00:34:14.873Z,1009
2017-08-02T00:35:14.862Z,1008.97
2017-08-02T00:36:14.847Z,1008.95
2017-08-02T00:37:14.836Z,1008.9
2017-08-02T00:38:14.826Z,1008.88
2017-08-02T00:39:14.816Z,1008.91
2017-08-02T00:40:14.803Z,1008.89
2017-08-02T00:41:14.795Z,1008.85
2017-08-02T00:42:14.779Z,1008.89
2017-08-02T00:43:14.770Z,1008.86
2017-08-02T00:44:14.758Z,1008.85
2017-08-02T00:45:14.748Z,1008.85
2017-08-02T00:46:14.739Z,1008.85
2017-08-02T00:47:14.726Z,1008.84
2017-08-02T00:48:14.713Z,1008.82
2017-08-02T00:49:14.702Z,1008.8
2017-08-02T00:50:14.693Z,1008.74
2017-08-02T00:51:14.681Z,1008.75
2017-08-02T00:52:14.670Z,1008.75
2017-08-02T00:53:14.659Z,1008.75
2017-08-02T00:54:14.648Z,1008.7
2017-08-02T00:55:14.635Z,1008.68
2017-08-02T00:56:14.625Z,1008.68
2017-08-02T00:57:14.613Z,1008.7
2017-08-02T00:58:14.602Z,1008.72
2017-08-02T00:59:14.589Z,1008.69
2017-08-02T01:00:14.581Z,1008.72
2017-08-02T01:01:14.570Z,1008.7
2017-08-02T01:02:14.562Z,1008.68
2017-08-02T01:03:14.548Z,1008.7
2017-08-02T01:04:14.537Z,1008.7
2017-08-02T01:05:14.526Z,1008.7
2017-08-02T01:06:14.514Z,1008.72
2017-08-02T01:07:14.503Z,1008.7
2017-08-02T01:08:14.493Z,1008.72
2017-08-02T01:09:14.481Z,1008.71
2017-08-02T01:10:14.468Z,1008.71
2017-08-02T01:11:14.457Z,1008.71
2017-08-02T01:12:14.445Z,1008.7
2017-08-02T01:13:14.437Z,1008.75
2017-08-02T01:14:14.424Z,1008.73
2017-08-02T01:15:14.414Z,1008.73
2017-08-02T01:16:14.403Z,1008.74
2017-08-02T01:17:14.394Z,1008.73
2017-08-02T01:18:14.382Z,1008.74
2017-08-02T01:19:14.368Z,1008.75
2017-08-02T01:20:14.358Z,1008.77
2017-08-02T01:21:14.347Z,1008.76
2017-08-02T01:22:14.334Z,1008.76
2017-08-02T01:23:14.324Z,1008.73
2017-08-02T01:24:14.514Z,1008.74
2017-08-02T01:25:14.300Z,1008.7
2017-08-02T01:26:14.290Z,1008.67
2017-08-02T01:27:14.279Z,1008.69
2017-08-02T01:28:14.267Z,1008.65
2017-08-02T01:29:14.257Z,1008.61
2017-08-02T01:30:14.244Z,1008.59
2017-08-02T01:31:14.233Z,1008.61
2017-08-02T01:32:14.226Z,1008.58
2017-08-02T01:33:14.214Z,1008.61
2017-08-02T01:34:14.198Z,1008.57
2017-08-02T01:35:14.188Z,1008.62
2017-08-02T01:36:14.178Z,1008.57
2017-08-02T01:37:14.166Z,1008.62
2017-08-02T01:38:14.161Z,1008.59
2017-08-02T01:39:14.143Z,1008.64
2017-08-02T01:40:14.135Z,1008.65
2017-08-02T01:41:14.124Z,1008.69
2017-08-02T01:42:14.110Z,1008.7
2017-08-02T01:43:14.102Z,1008.7
2017-08-02T01:44:14.087Z,1008.73
2017-08-02T01:45:14.079Z,1008.76
2017-08-02T01:46:14.064Z,1008.71
2017-08-02T01:47:14.056Z,1008.71
2017-08-02T01:48:14.043Z,1008.7
2017-08-02T01:49:14.033Z,1008.69
2017-08-02T01:50:14.020Z,1008.69
2017-08-02T01:51:14.008Z,1008.66
2017-08-02T01:52:13.996Z,1008.68
2017-08-02T01:53:13.986Z,1008.68
2017-08-02T01:54:13.974Z,1008.64
2017-08-02T01:55:13.966Z,1008.67
2017-08-02T01:56:13.952Z,1008.71
2017-08-02T01:57:13.939Z,1008.7
2017-08-02T01:58:13.929Z,1008.72
2017-08-02T01:59:13.919Z,1008.76
2017-08-02T02:00:13.905Z,1008.75
2017-08-02T02:01:13.896Z,1008.79
2017-08-02T02:02:13.882Z,1008.77
2017-08-02T02:03:13.873Z,1008.76
2017-08-02T02:04:13.861Z,1008.71
2017-08-02T02:05:13.849Z,1008.73
2017-08-02T02:06:13.842Z,1008.75
2017-08-02T02:07:13.828Z,1008.77
2017-08-02T02:08:13.815Z,1008.76
2017-08-02T02:09:13.804Z,1008.78
2017-08-02T02:10:13.797Z,1008.85
2017-08-02T02:11:13.781Z,1008.84
2017-08-02T02:12:13.772Z,1008.8
2017-08-02T02:13:13.759Z,1008.79
2017-08-02T02:14:13.747Z,1008.77
2017-08-02T02:15:13.738Z,1008.75
2017-08-02T02:16:13.724Z,1008.68
2017-08-02T02:17:13.716Z,1008.71
2017-08-02T02:18:13.704Z,1008.71
2017-08-02T02:19:13.691Z,1008.72
2017-08-02T02:20:13.677Z,1008.75
2017-08-02T02:21:13.667Z,1008.76
2017-08-02T02:22:13.657Z,1008.76
2017-08-02T02:23:13.649Z,1008.81
2017-08-02T02:24:13.637Z,1008.8
2017-08-02T02:25:13.622Z,1008.8
2017-08-02T02:26:13.611Z,1008.77
2017-08-02T02:27:13.601Z,1008.8
2017-08-02T02:28:13.587Z,1008.77
2017-08-02T02:29:13.576Z,1008.77
2017-08-02T02:30:13.567Z,1008.79
2017-08-02T02:31:13.554Z,1008.78
2017-08-02T02:32:13.545Z,1008.78
2017-08-02T02:33:13.536Z,1008.73
2017-08-02T02:34:13.520Z,1008.74
2017-08-02T02:35:13.509Z,1008.76
2017-08-02T02:36:13.497Z,1008.76
2017-08-02T02:37:13.489Z,1008.74
2017-08-02T02:38:13.474Z,1008.67
2017-08-02T02:39:13.462Z,1008.66
2017-08-02T02:40:13.452Z,1008.61
2017-08-02T02:41:13.439Z,1008.56
2017-08-02T02:42:13.428Z,1008.56
2017-08-02T02:43:13.417Z,1008.55
2017-08-02T02:44:13.405Z,1008.54
2017-08-02T02:45:13.393Z,1008.53
2017-08-02T02:46:13.383Z,1008.53
2017-08-02T02:47:13.371Z,1008.49
2017-08-02T02:48:13.361Z,1008.52
2017-08-02T02:49:13.351Z,1008.49
2017-08-02T02:50:13.337Z,1008.55
2017-08-02T02:51:13.327Z,1008.57
2017-08-02T02:52:13.314Z,1008.58
2017-08-02T02:53:13.304Z,1008.59
2017-08-02T02:54:13.294Z,1008.54
2017-08-02T02:55:13.281Z,1008.54
2017-08-02T02:56:13.270Z,1008.59
2017-08-02T02:57:13.261Z,1008.55
2017-08-02T02:58:13.246Z,1008.59
2017-08-02T02:59:13.235Z,1008.6
2017-08-02T03:00:13.222Z,1008.63
2017-08-02T03:01:13.211Z,1008.69
2017-08-02T03:02:13.202Z,1008.7
2017-08-02T03:03:13.196Z,1008.66
2017-08-02T03:04:13.177Z,1008.63
2017-08-02T03:05:13.168Z,1008.6
2017-08-02T03:06:13.154Z,1008.63
2017-08-02T03:07:13.142Z,1008.71
2017-08-02T03:08:13.132Z,1008.69
2017-08-02T03:09:13.121Z,1008.69
2017-08-02T03:10:13.110Z,1008.67
2017-08-02T03:11:13.096Z,1008.64
2017-08-02T03:12:13.088Z,1008.63
2017-08-02T03:13:13.075Z,1008.61
2017-08-02T03:14:13.063Z,1008.6
2017-08-02T03:15:13.050Z,1008.61
2017-08-02T03:16:13.039Z,1008.68
2017-08-02T03:17:13.028Z,1008.65
2017-08-02T03:18:13.015Z,1008.71
2017-08-02T03:19:13.004Z,1008.74
2017-08-02T03:20:12.995Z,1008.73
2017-08-02T03:21:12.982Z,1008.75
2017-08-02T03:22:12.977Z,1008.77
2017-08-02T03:23:12.958Z,1008.76
2017-08-02T03:24:13.150Z,1008.74
2017-08-02T03:25:12.936Z,1008.69
2017-08-02T03:26:12.924Z,1008.65
2017-08-02T03:27:12.915Z,1008.62
2017-08-02T03:28:12.902Z,1008.62
2017-08-02T03:29:12.891Z,1008.6
2017-08-02T03:30:12.880Z,1008.59
2017-08-02T03:31:12.868Z,1008.54
2017-08-02T03:32:12.854Z,1008.52
2017-08-02T03:33:12.847Z,1008.49
2017-08-02T03:34:12.831Z,1008.46
2017-08-02T03:35:12.821Z,1008.48
2017-08-02T03:36:12.808Z,1008.47
2017-08-02T03:37:12.798Z,1008.43
2017-08-02T03:38:12.787Z,1008.39
2017-08-02T03:39:12.778Z,1008.4
2017-08-02T03:40:12.764Z,1008.37
2017-08-02T03:41:12.751Z,1008.41
2017-08-02T03:42:12.740Z,1008.42
2017-08-02T03:43:12.728Z,1008.45
2017-08-02T03:44:12.718Z,1008.52
2017-08-02T03:45:12.704Z,1008.52
2017-08-02T03:46:12.694Z,1008.5
2017-08-02T03:47:12.686Z,1008.46
2017-08-02T03:48:12.670Z,1008.51
2017-08-02T03:49:12.661Z,1008.48
2017-08-02T03:50:12.649Z,1008.49
2017-08-02T03:51:12.635Z,1008.49
2017-08-02T03:52:12.624Z,1008.47
2017-08-02T03:53:12.616Z,1008.44
2017-08-02T03:54:12.603Z,1008.5
2017-08-02T03:55:12.590Z,1008.53
2017-08-02T03:56:12.581Z,1008.49
2017-08-02T03:57:12.568Z,1008.48
2017-08-02T03:58:12.559Z,1008.52
2017-08-02T03:59:12.548Z,1008.53
2017-08-02T04:00:12.537Z,1008.56
2017-08-02T04:01:12.523Z,1008.56
2017-08-02T04:02:12.512Z,1008.59
2017-08-02T04:03:12.500Z,1008.6
2017-08-02T04:04:12.488Z,1008.62
2017-08-02T04:05:12.477Z,1008.62
2017-08-02T04:06:12.468Z,1008.62
2017-08-02T04:07:12.454Z,1008.62
2017-08-02T04:08:12.443Z,1008.68
2017-08-02T04:09:12.431Z,1008.7
2017-08-02T04:10:12.420Z,1008.68
2017-08-02T04:11:12.407Z,1008.7
2017-08-02T04:12:12.396Z,1008.74
2017-08-02T04:13:12.387Z,1008.72
2017-08-02T04:14:12.377Z,1008.79
2017-08-02T04:15:12.363Z,1008.81
2017-08-02T04:16:12.350Z,1008.8
2017-08-02T04:17:12.340Z,1008.82
2017-08-02T04:18:12.328Z,1008.78
2017-08-02T04:19:12.318Z,1008.75
2017-08-02T04:20:12.308Z,1008.72
2017-08-02T04:21:12.295Z,1008.71
2017-08-02T04:22:12.284Z,1008.7
2017-08-02T04:23:12.275Z,1008.71
2017-08-02T04:24:12.263Z,1008.73
2017-08-02T04:25:12.250Z,1008.7
2017-08-02T04:26:12.241Z,1008.78
2017-08-02T04:27:12.225Z,1008.77
2017-08-02T04:28:12.215Z,1008.81
2017-08-02T04:29:12.205Z,1008.79
2017-08-02T04:30:12.195Z,1008.81
2017-08-02T04:31:12.181Z,1008.79
2017-08-02T04:32:12.171Z,1008.83
2017-08-02T04:33:12.211Z,1008.83
2017-08-02T04:34:12.147Z,1008.82
2017-08-02T04:35:12.137Z,1008.82
2017-08-02T04:36:12.127Z,1008.77
2017-08-02T04:37:12.116Z,1008.78
2017-08-02T04:38:12.102Z,1008.74
2017-08-02T04:39:12.092Z,1008.73
2017-08-02T04:40:12.082Z,1008.7
2017-08-02T04:41:12.068Z,1008.73
2017-08-02T04:42:12.057Z,1008.73
2017-08-02T04:43:12.046Z,1008.67
2017-08-02T04:44:12.036Z,1008.75
2017-08-02T04:45:12.024Z,1008.75
2017-08-02T04:46:12.019Z,1008.73
2017-08-02T04:47:12.002Z,1008.74
2017-08-02T04:48:11.991Z,1008.76
2017-08-02T04:49:11.979Z,1008.67
2017-08-02T04:50:11.969Z,1008.62
2017-08-02T04:51:11.957Z,1008.56
2017-08-02T04:52:11.950Z,1008.56
2017-08-02T04:53:11.934Z,1008.48
2017-08-02T04:54:11.927Z,1008.52
2017-08-02T04:55:11.913Z,1008.53
2017-08-02T04:56:11.902Z,1008.57
2017-08-02T04:57:11.893Z,1008.63
2017-08-02T04:58:11.880Z,1008.64
2017-08-02T04:59:11.870Z,1008.64
2017-08-02T05:00:11.857Z,1008.67
2017-08-02T05:01:11.850Z,1008.63
2017-08-02T05:02:11.838Z,1008.64
2017-08-02T05:03:11.829Z,1008.62
2017-08-02T05:04:11.814Z,1008.61
2017-08-02T05:05:11.803Z,1008.6
2017-08-02T05:06:11.792Z,1008.64
2017-08-02T05:07:11.780Z,1008.67
2017-08-02T05:08:11.771Z,1008.63
2017-08-02T05:09:11.761Z,1008.63
2017-08-02T05:10:11.751Z,1008.63
2017-08-02T05:11:11.739Z,1008.67
2017-08-02T05:12:11.732Z,1008.69
2017-08-02T05:13:11.717Z,1008.65
2017-08-02T05:14:11.707Z,1008.62
2017-08-02T05:15:11.695Z,1008.61
2017-08-02T05:16:11.685Z,1008.54
2017-08-02T05:17:11.676Z,1008.58
2017-08-02T05:18:11.663Z,1008.59
2017-08-02T05:19:11.652Z,1008.61
2017-08-02T05:20:11.644Z,1008.65
2017-08-02T05:21:11.634Z,1008.69
2017-08-02T05:22:11.621Z,1008.68
2017-08-02T05:23:11.611Z,1008.69
2017-08-02T05:24:11.802Z,1008.71
2017-08-02T05:25:11.590Z,1008.67
2017-08-02T05:26:11.579Z,1008.64
2017-08-02T05:27:11.569Z,1008.63
2017-08-02T05:28:11.557Z,1008.63
2017-08-02T05:29:11.546Z,1008.62
2017-08-02T05:30:11.536Z,1008.58
2017-08-02T05:31:11.525Z,1008.61
2017-08-02T05:32:11.515Z,1008.61
2017-08-02T05:33:11.507Z,1008.62
2017-08-02T05:34:11.495Z,1008.68
2017-08-02T05:35:11.485Z,1008.7
2017-08-02T05:36:11.472Z,1008.69
2017-08-02T05:37:11.463Z,1008.77
2017-08-02T05:38:11.453Z,1008.83
2017-08-02T05:39:11.441Z,1008.86
2017-08-02T05:40:11.431Z,1008.89
2017-08-02T05:41:11.422Z,1008.92
2017-08-02T05:42:11.412Z,1008.9
2017-08-02T05:43:11.402Z,1008.94
2017-08-02T05:44:11.390Z,1008.93
2017-08-02T05:45:11.381Z,1008.94
2017-08-02T05:46:11.371Z,1008.96
2017-08-02T05:47:11.359Z,1008.91
2017-08-02T05:48:11.349Z,1008.91
2017-08-02T05:49:11.339Z,1008.92
2017-08-02T05:50:11.329Z,1008.93
2017-08-02T05:51:11.319Z,1008.93
2017-08-02T05:52:11.307Z,1008.91
2017-08-02T05:53:11.298Z,1008.95
2017-08-02T05:54:11.287Z,1008.95
2017-08-02T05:55:11.277Z,1008.91
2017-08-02T05:56:11.270Z,1008.92
2017-08-02T05:57:11.256Z,1008.96
2017-08-02T05:58:11.247Z,1009.01
2017-08-02T05:59:11.238Z,1009.01
2017-08-02T06:00:11.227Z,1009.06
2017-08-02T06:01:11.218Z,1009.07
2017-08-02T06:02:11.205Z,1009.13
2017-08-02T06:03:11.200Z,1009.11
2017-08-02T06:04:11.193Z,1009.07
2017-08-02T06:05:11.176Z,1009.06
2017-08-02T06:06:11.165Z,1009.05
2017-08-02T06:07:11.155Z,1009.03
2017-08-02T06:08:11.146Z,1009.04
2017-08-02T06:09:11.135Z,1009.01
2017-08-02T06:10:11.124Z,1009
2017-08-02T06:11:11.114Z,1008.97
2017-08-02T06:12:11.104Z,1009
2017-08-02T06:13:11.094Z,1009.03
2017-08-02T06:14:11.082Z,1009.03
2017-08-02T06:15:11.074Z,1009.02
2017-08-02T06:16:11.063Z,1009.04
2017-08-02T06:17:11.052Z,1009.05
2017-08-02T06:18:11.044Z,1009.07
2017-08-02T06:19:11.032Z,1009.04
2017-08-02T06:20:11.023Z,1009.02
2017-08-02T06:21:11.019Z,1009
2017-08-02T06:22:11.003Z,1008.99
2017-08-02T06:23:10.993Z,1008.99
2017-08-02T06:24:10.980Z,1009.01
2017-08-02T06:25:10.972Z,1009.05
2017-08-02T06:26:10.962Z,1009.13
2017-08-02T06:27:10.954Z,1009.1
2017-08-02T06:28:10.943Z,1009.12
2017-08-02T06:29:10.932Z,1009.12
2017-08-02T06:30:10.924Z,1009.19
2017-08-02T06:31:10.912Z,1009.16
2017-08-02T06:32:10.902Z,1009.16
2017-08-02T06:33:10.895Z,1009.18
2017-08-02T06:34:10.885Z,1009.16
2017-08-02T06:35:10.872Z,1009.11
2017-08-02T06:36:10.861Z,1009.1
2017-08-02T06:37:10.856Z,1009.12
2017-08-02T06:38:10.844Z,1009.11
2017-08-02T06:39:10.831Z,1009.12
2017-08-02T06:40:10.821Z,1009.06
2017-08-02T06:41:10.811Z,1009.08
2017-08-02T06:42:10.801Z,1009.12
2017-08-02T06:43:10.793Z,1009.12
2017-08-02T06:44:10.782Z,1009.13
2017-08-02T06:45:10.772Z,1009.12
2017-08-02T06:46:10.761Z,1009.09
2017-08-02T06:47:10.755Z,1009.13
2017-08-02T06:48:10.741Z,1009.13
2017-08-02T06:49:10.736Z,1009.1
2017-08-02T06:50:10.722Z,1009.1
2017-08-02T06:51:10.713Z,1009.1
2017-08-02T06:52:10.702Z,1009.1
2017-08-02T06:53:10.692Z,1009.11
2017-08-02T06:54:10.683Z,1009.11
2017-08-02T06:55:10.673Z,1009.1
2017-08-02T06:56:10.663Z,1009.1
2017-08-02T06:57:10.652Z,1009.09
2017-08-02T06:58:10.645Z,1009.07
2017-08-02T06:59:10.634Z,1009.06
2017-08-02T07:00:10.624Z,1009.03
2017-08-02T07:01:10.642Z,1008.98
2017-08-02T07:02:10.602Z,1008.96
2017-08-02T07:03:10.600Z,1008.94
2017-08-02T07:04:10.583Z,1008.92
2017-08-02T07:05:10.574Z,1008.93
2017-08-02T07:06:10.566Z,1008.95
2017-08-02T07:07:10.556Z,1009
2017-08-02T07:08:10.545Z,1008.99
2017-08-02T07:09:10.535Z,1009.03
2017-08-02T07:10:10.526Z,1009.02
2017-08-02T07:11:10.516Z,1009
2017-08-02T07:12:10.506Z,1008.94
2017-08-02T07:13:10.500Z,1008.95
2017-08-02T07:14:10.491Z,1008.95
2017-08-02T07:15:10.477Z,1008.93
2017-08-02T07:16:10.467Z,1008.95
2017-08-02T07:17:10.460Z,1008.95
2017-08-02T07:18:10.450Z,1008.97
2017-08-02T07:19:10.438Z,1008.94
2017-08-02T07:20:10.430Z,1008.98
2017-08-02T07:21:10.422Z,1008.97
2017-08-02T07:22:10.412Z,1009.01
2017-08-02T07:23:10.404Z,1009.09
2017-08-02T07:24:10.595Z,1009.12
2017-08-02T07:25:10.391Z,1009.13
2017-08-02T07:26:10.374Z,1009.14
2017-08-02T07:27:10.366Z,1009.13
2017-08-02T07:28:10.357Z,1009.1
2017-08-02T07:29:10.349Z,1009.09
2017-08-02T07:30:10.337Z,1009.05
2017-08-02T07:31:10.329Z,1009.06
2017-08-02T07:32:10.322Z,1009.04
2017-08-02T07:33:10.313Z,1009.07
2017-08-02T07:34:10.304Z,1009.16
2017-08-02T07:35:10.296Z,1009.29
2017-08-02T07:36:10.287Z,1009.3
2017-08-02T07:37:10.279Z,1009.25
2017-08-02T07:38:10.272Z,1009.25
2017-08-02T07:39:10.268Z,1009.18
2017-08-02T07:40:10.254Z,1009.13
2017-08-02T07:41:10.249Z,1009.23
2017-08-02T07:42:10.247Z,1009.27
2017-08-02T07:43:10.235Z,1009.3
2017-08-02T07:44:10.222Z,1009.2
2017-08-02T07:45:10.217Z,1009.14
2017-08-02T07:46:10.260Z,1009.21
2017-08-02T07:47:10.201Z,1009.26
2017-08-02T07:48:10.192Z,1009.24
2017-08-02T07:49:10.192Z,1009.15
2017-08-02T07:50:10.181Z,1009.18
2017-08-02T07:51:10.173Z,1009.21
2017-08-02T07:52:10.167Z,1009.18
2017-08-02T07:53:10.161Z,1009.21
2017-08-02T07:54:10.147Z,1009.18
2017-08-02T07:55:10.142Z,1009.15
2017-08-02T07:56:10.134Z,1009.24
2017-08-02T07:57:10.126Z,1009.31
2017-08-02T07:58:10.121Z,1009.31
2017-08-02T07:59:10.113Z,1009.39
2017-08-02T08:00:10.109Z,1009.34
2017-08-02T08:01:10.100Z,1009.26
2017-08-02T08:02:10.095Z,1009.28
2017-08-02T08:03:10.090Z,1009.29
2017-08-02T08:04:10.090Z,1009.29
2017-08-02T08:05:10.078Z,1009.24
2017-08-02T08:06:10.071Z,1009.18
2017-08-02T08:07:10.070Z,1009.12
2017-08-02T08:08:10.061Z,1009.15
2017-08-02T08:09:10.055Z,1009.15
2017-08-02T08:10:10.048Z,1009.18
2017-08-02T08:11:10.044Z,1009.16
2017-08-02T08:12:10.039Z,1009.13
2017-08-02T08:13:10.034Z,1009.12
2017-08-02T08:14:10.027Z,1009.18
2017-08-02T08:15:10.022Z,1009.25
2017-08-02T08:16:10.019Z,1009.27
2017-08-02T08:17:10.012Z,1009.23
2017-08-02T08:18:10.008Z,1009.22
2017-08-02T08:19:10.001Z,1009.16
2017-08-02T08:20:09.997Z,1009.18
2017-08-02T08:21:09.991Z,1009.17
2017-08-02T08:22:09.987Z,1009.16
2017-08-02T08:23:09.981Z,1009.13
2017-08-02T08:24:09.977Z,1009.2
2017-08-02T08:25:09.972Z,1009.17
2017-08-02T08:26:09.966Z,1009.12
2017-08-02T08:27:09.964Z,1009.06
2017-08-02T08:28:09.956Z,1009.04
2017-08-02T08:29:09.951Z,1009.04
2017-08-02T08:30:09.949Z,1009.13
2017-08-02T08:31:09.941Z,1009.12
2017-08-02T08:32:09.936Z,1009.11
2017-08-02T08:33:09.931Z,1009.08
2017-08-02T08:34:09.926Z,1009.1
2017-08-02T08:35:09.921Z,1009.15
2017-08-02T08:36:09.916Z,1009.16
2017-08-02T08:37:09.913Z,1009.15
2017-08-02T08:38:09.906Z,1009.18
2017-08-02T08:39:09.901Z,1009.2
2017-08-02T08:40:09.896Z,1009.15
2017-08-02T08:41:09.891Z,1009.2
2017-08-02T08:42:09.888Z,1009.13
2017-08-02T08:43:09.885Z,1009.18
2017-08-02T08:44:09.875Z,1009.21
2017-08-02T08:45:09.872Z,1009.2
2017-08-02T08:46:09.864Z,1009.27
2017-08-02T08:47:09.857Z,1009.35
2017-08-02T08:48:09.853Z,1009.38
2017-08-02T08:49:09.846Z,1009.4
2017-08-02T08:50:09.847Z,1009.35
2017-08-02T08:51:09.834Z,1009.4
2017-08-02T08:52:09.833Z,1009.37
2017-08-02T08:53:09.824Z,1009.53
2017-08-02T08:54:09.818Z,1009.43
2017-08-02T08:55:09.810Z,1009.43
2017-08-02T08:56:09.806Z,1009.57
2017-08-02T08:57:09.800Z,1009.44
2017-08-02T08:58:09.998Z,1009.51
2017-08-02T08:59:09.787Z,1009.33
2017-08-02T09:00:09.780Z,1009.34
2017-08-02T09:01:09.775Z,1009.39
2017-08-02T09:02:09.771Z,1009.37
2017-08-02T09:03:09.763Z,1009.36
2017-08-02T09:04:09.757Z,1009.35
2017-08-02T09:05:09.749Z,1009.33
2017-08-02T09:06:09.743Z,1009.34
2017-08-02T09:07:09.739Z,1009.35
2017-08-02T09:08:09.733Z,1009.44
2017-08-02T09:09:09.727Z,1009.47
2017-08-02T09:10:09.720Z,1009.52
2017-08-02T09:11:09.716Z,1009.52
2017-08-02T09:12:09.710Z,1009.45
2017-08-02T09:13:09.703Z,1009.53
2017-08-02T09:14:09.698Z,1009.49
2017-08-02T09:15:09.695Z,1009.49
2017-08-02T09:16:09.689Z,1009.48
2017-08-02T09:17:09.682Z,1009.58
2017-08-02T09:18:09.676Z,1009.63
2017-08-02T09:19:09.670Z,1009.58
2017-08-02T09:20:09.664Z,1009.68
2017-08-02T09:21:09.659Z,1009.61
2017-08-02T09:22:09.654Z,1009.61
2017-08-02T09:23:09.646Z,1009.62
2017-08-02T09:24:09.842Z,1009.61
2017-08-02T09:25:09.640Z,1009.69
2017-08-02T09:26:09.629Z,1009.57
2017-08-02T09:27:09.623Z,1009.56
2017-08-02T09:28:09.617Z,1009.66
2017-08-02T09:29:09.610Z,1009.65
2017-08-02T09:30:09.617Z,1009.63
2017-08-02T09:31:09.601Z,1009.61
2017-08-02T09:32:09.594Z,1009.64
2017-08-02T09:33:09.589Z,1009.6
2017-08-02T09:34:09.584Z,1009.56
2017-08-02T09:35:09.577Z,1009.54
2017-08-02T09:36:09.584Z,1009.53
2017-08-02T09:37:09.564Z,1009.49
2017-08-02T09:38:09.558Z,1009.48
2017-08-02T09:39:09.553Z,1009.52
2017-08-02T09:40:09.552Z,1009.52
2017-08-02T09:41:09.543Z,1009.6
2017-08-02T09:42:09.535Z,1009.55
2017-08-02T09:43:09.527Z,1009.57
2017-08-02T09:44:09.528Z,1009.56
2017-08-02T09:45:09.518Z,1009.62
2017-08-02T09:46:09.511Z,1009.52
2017-08-02T09:47:09.505Z,1009.63
2017-08-02T09:48:09.499Z,1009.62
2017-08-02T09:49:09.500Z,1009.61
2017-08-02T09:50:09.494Z,1009.82
2017-08-02T09:51:09.479Z,1009.84
2017-08-02T09:52:09.474Z,1009.78
2017-08-02T09:53:09.517Z,1009.86
2017-08-02T09:54:09.461Z,1009.82
2017-08-02T09:55:09.459Z,1009.88
2017-08-02T09:56:09.451Z,1009.87
2017-08-02T09:57:09.445Z,1009.79
2017-08-02T09:58:09.439Z,1009.83
2017-08-02T09:59:09.434Z,1009.72
2017-08-02T10:00:09.430Z,1009.8
2017-08-02T10:01:09.422Z,1009.8
2017-08-02T10:02:09.415Z,1009.73
2017-08-02T10:03:09.409Z,1009.7
2017-08-02T10:04:09.403Z,1009.73
2017-08-02T10:05:09.397Z,1009.75
2017-08-02T10:06:09.394Z,1009.75
2017-08-02T10:07:09.387Z,1009.74
2017-08-02T10:08:09.381Z,1009.79
2017-08-02T10:09:09.374Z,1009.92
2017-08-02T10:10:09.373Z,1010.11
2017-08-02T10:11:09.362Z,1009.98
2017-08-02T10:12:09.358Z,1009.95
2017-08-02T10:13:09.354Z,1009.93
2017-08-02T10:14:09.347Z,1009.91
2017-08-02T10:15:09.341Z,1009.9
2017-08-02T10:16:09.354Z,1009.92
2017-08-02T10:17:09.332Z,1009.9
2017-08-02T10:18:09.326Z,1009.87
2017-08-02T10:19:09.326Z,1009.89
2017-08-02T10:20:09.317Z,1009.89
2017-08-02T10:21:09.312Z,1009.86
2017-08-02T10:22:09.323Z,1010.14
2017-08-02T10:23:09.314Z,1010.07
2017-08-02T10:24:09.303Z,1009.82
2017-08-02T10:25:09.294Z,1010.38
2017-08-02T10:26:09.295Z,1009.97
2017-08-02T10:27:09.284Z,1009.93
2017-08-02T10:28:09.281Z,1010.02
2017-08-02T10:29:09.277Z,1009.94
2017-08-02T10:30:09.273Z,1009.9
2017-08-02T10:31:09.271Z,1010.12
2017-08-02T10:32:09.268Z,1010.23
2017-08-02T10:33:09.265Z,1010.03
2017-08-02T10:34:09.260Z,1009.92
2017-08-02T10:35:09.258Z,1010.02
2017-08-02T10:36:09.256Z,1010.26
2017-08-02T10:37:09.253Z,1010.16
2017-08-02T10:38:09.254Z,1010.2
2017-08-02T10:39:09.248Z,1010.02
2017-08-02T10:40:09.246Z,1010.07
2017-08-02T10:41:09.244Z,1009.92
2017-08-02T10:42:09.244Z,1010
2017-08-02T10:43:09.241Z,1010.04
2017-08-02T10:44:09.242Z,1010.06
2017-08-02T10:45:09.240Z,1010.23
2017-08-02T10:46:09.242Z,1010.02
2017-08-02T10:47:09.237Z,1009.99
2017-08-02T10:48:09.236Z,1009.9
2017-08-02T10:49:09.234Z,1009.92
2017-08-02T10:50:09.234Z,1009.9
2017-08-02T10:51:09.233Z,1009.88
2017-08-02T10:52:09.232Z,1009.9
2017-08-02T10:53:09.231Z,1009.89
2017-08-02T10:54:09.229Z,1009.94
2017-08-02T10:55:09.229Z,1009.89
2017-08-02T10:56:09.229Z,1010
2017-08-02T10:57:09.226Z,1009.97
2017-08-02T10:58:09.231Z,1009.99
2017-08-02T10:59:09.226Z,1009.97
2017-08-02T11:00:09.220Z,1009.94
2017-08-02T11:01:09.219Z,1009.87
2017-08-02T11:02:09.221Z,1009.93
2017-08-02T11:03:09.215Z,1009.92
2017-08-02T11:04:09.214Z,1009.92
2017-08-02T11:05:09.210Z,1009.96
2017-08-02T11:06:09.207Z,1009.9
2017-08-02T11:07:09.206Z,1009.87
2017-08-02T11:08:09.203Z,1009.85
2017-08-02T11:09:09.198Z,1009.86
2017-08-02T11:10:09.198Z,1009.87
2017-08-02T11:11:09.194Z,1009.87
2017-08-02T11:12:09.191Z,1009.86
2017-08-02T11:13:09.187Z,1009.9
2017-08-02T11:14:09.186Z,1009.97
2017-08-02T11:15:09.186Z,1009.97
2017-08-02T11:16:09.179Z,1009.95
2017-08-02T11:17:09.176Z,1009.96
2017-08-02T11:18:09.184Z,1009.92
2017-08-02T11:19:09.172Z,1010.01
2017-08-02T11:20:09.168Z,1009.95
2017-08-02T11:21:09.164Z,1009.9
2017-08-02T11:22:09.168Z,1009.83
2017-08-02T11:23:09.161Z,1009.82
2017-08-02T11:24:09.158Z,1009.82
2017-08-02T11:25:09.155Z,1009.88
2017-08-02T11:26:09.153Z,1009.88
2017-08-02T11:27:09.150Z,1009.84
2017-08-02T11:28:09.147Z,1009.84
2017-08-02T11:29:09.145Z,1009.86
2017-08-02T11:30:09.143Z,1009.84
2017-08-02T11:31:09.139Z,1009.82
2017-08-02T11:32:09.139Z,1009.85
2017-08-02T11:33:09.138Z,1009.87
2017-08-02T11:34:09.135Z,1009.95
2017-08-02T11:35:09.130Z,1009.93
2017-08-02T11:36:09.131Z,1009.96
2017-08-02T11:37:09.125Z,1010.09
2017-08-02T11:38:09.122Z,1009.98
2017-08-02T11:39:09.122Z,1009.99
2017-08-02T11:40:09.122Z,1009.95
2017-08-02T11:41:09.119Z,1009.94
2017-08-02T11:42:09.116Z,1009.92
2017-08-02T11:43:09.115Z,1009.88
2017-08-02T11:44:09.116Z,1009.89
2017-08-02T11:45:09.116Z,1009.9
2017-08-02T11:46:09.114Z,1009.99
2017-08-02T11:47:09.116Z,1009.9
2017-08-02T11:48:09.114Z,1009.94
2017-08-02T11:49:09.114Z,1009.91
2017-08-02T11:50:09.113Z,1009.87
2017-08-02T11:51:09.113Z,1009.85
2017-08-02T11:52:09.113Z,1009.94
2017-08-02T11:53:09.111Z,1009.83
2017-08-02T11:54:09.113Z,1009.86
2017-08-02T11:55:09.113Z,1009.84
2017-08-02T11:56:09.111Z,1009.9
2017-08-02T11:57:09.133Z,1009.93
2017-08-02T11:58:09.109Z,1009.84
2017-08-02T11:59:09.110Z,1009.85
2017-08-02T12:00:09.106Z,1009.88
2017-08-02T12:01:09.105Z,1009.92
2017-08-02T12:02:09.104Z,1009.91
2017-08-02T12:03:09.101Z,1009.88
2017-08-02T12:04:09.100Z,1009.9
2017-08-02T12:05:09.099Z,1009.88
2017-08-02T12:06:09.101Z,1009.89
2017-08-02T12:07:09.104Z,1009.81
2017-08-02T12:08:09.094Z,1009.82
2017-08-02T12:09:09.090Z,1009.77